createdAt,value
2022-11-03T00:01:52.313Z,1.47
2022-11-03T00:04:23.053Z,1.40
2022-11-03T00:06:54.761Z,1.03
2022-11-03T00:09:26.884Z,1.10
2022-11-03T00:11:57.053Z,1.30
2022-11-03T00:14:25.455Z,1.33
2022-11-03T00:16:53.961Z,1.83
2022-11-03T00:19:22.732Z,1.60
2022-11-03T00:21:52.636Z,1.77
2022-11-03T00:24:21.354Z,3.30
2022-11-03T00:26:50.045Z,1.37
2022-11-03T00:29:21.532Z,2.20
2022-11-03T00:31:50.449Z,1.60
2022-11-03T00:34:19.418Z,1.60
2022-11-03T00:36:47.847Z,1.13
2022-11-03T00:39:16.693Z,1.50
2022-11-03T00:41:45.296Z,1.40
2022-11-03T00:44:14.283Z,1.77
2022-11-03T00:46:44.029Z,1.67
2022-11-03T00:49:12.424Z,1.40
2022-11-03T00:51:40.814Z,1.37
2022-11-03T00:54:09.957Z,1.90
2022-11-03T00:56:41.368Z,1.63
2022-11-03T00:59:11.328Z,2.43
2022-11-03T01:01:46.984Z,1.63
2022-11-03T01:04:35.124Z,1.70
2022-11-03T01:07:06.219Z,1.70
2022-11-03T01:09:38.654Z,1.50
2022-11-03T01:12:10.566Z,1.80
2022-11-03T01:14:43.094Z,1.60
2022-11-03T01:17:17.164Z,2.13
2022-11-03T01:19:45.884Z,1.37
2022-11-03T01:22:16.744Z,1.80
2022-11-03T01:24:45.884Z,1.63
2022-11-03T01:27:17.799Z,1.37
2022-11-03T01:29:46.903Z,1.60
2022-11-03T01:32:17.265Z,1.73
2022-11-03T01:34:45.706Z,1.60
2022-11-03T01:37:14.641Z,1.57
2022-11-03T01:39:43.169Z,1.77
2022-11-03T01:42:14.365Z,2.20
2022-11-03T01:44:49.078Z,1.97
2022-11-03T01:47:27.634Z,1.97
2022-11-03T01:50:04.948Z,2.23
2022-11-03T01:52:40.957Z,1.80
2022-11-03T01:55:14.830Z,1.73
2022-11-03T01:57:50.455Z,1.60
2022-11-03T02:00:19.655Z,2.90
2022-11-03T02:02:51.089Z,1.40
2022-11-03T02:05:22.679Z,1.73
2022-11-03T02:07:57.024Z,1.90
2022-11-03T02:10:26.534Z,1.90
2022-11-03T02:12:55.297Z,1.73
2022-11-03T02:15:25.723Z,1.90
2022-11-03T02:17:58.830Z,2.00
2022-11-03T02:20:32.785Z,1.80
2022-11-03T02:23:26.259Z,1.43
2022-11-03T02:25:58.027Z,2.80
2022-11-03T02:28:30.539Z,1.60
2022-11-03T02:31:13.275Z,1.40
2022-11-03T02:33:54.813Z,1.90
2022-11-03T02:36:31.437Z,1.57
2022-11-03T02:39:06.399Z,2.00
2022-11-03T02:41:39.922Z,1.60
2022-11-03T02:44:16.913Z,1.60
2022-11-03T02:46:48.134Z,1.80
2022-11-03T02:49:16.871Z,2.07
2022-11-03T02:51:45.676Z,1.50
2022-11-03T02:54:24.786Z,1.90
2022-11-03T02:57:03.791Z,1.80
2022-11-03T02:59:42.143Z,1.30
2022-11-03T03:02:16.167Z,1.60
2022-11-03T03:04:52.483Z,1.60
2022-11-03T03:07:27.707Z,1.70
2022-11-03T03:10:03.530Z,1.30
2022-11-03T03:12:39.463Z,1.17
2022-11-03T03:15:10.728Z,1.67
2022-11-03T03:17:50.365Z,1.57
2022-11-03T03:20:25.841Z,1.93
2022-11-03T03:23:01.347Z,1.67
2022-11-03T03:25:35.468Z,1.67
2022-11-03T03:28:12.452Z,2.03
2022-11-03T03:30:45.063Z,1.50
2022-11-03T03:33:16.648Z,1.30
2022-11-03T03:35:52.070Z,1.50
2022-11-03T03:38:32.198Z,1.73
2022-11-03T03:41:05.537Z,1.63
2022-11-03T03:43:38.331Z,1.83
2022-11-03T03:46:12.511Z,1.87
2022-11-03T03:48:41.190Z,1.60
2022-11-03T03:51:11.335Z,1.50
2022-11-03T03:53:39.734Z,1.70
2022-11-03T03:56:08.771Z,1.63
2022-11-03T03:58:38.507Z,2.10
2022-11-03T04:01:06.936Z,1.60
2022-11-03T04:03:35.395Z,1.73
2022-11-03T04:06:04.402Z,1.50
2022-11-03T04:08:32.814Z,1.90
2022-11-03T04:11:15.617Z,1.60
2022-11-03T04:14:03.051Z,1.63
2022-11-03T04:16:48.976Z,2.13
2022-11-03T04:19:35.101Z,1.67
2022-11-03T04:22:18.510Z,1.50
2022-11-03T04:24:48.793Z,1.83
2022-11-03T04:27:32.043Z,2.00
2022-11-03T04:30:15.211Z,1.83
2022-11-03T04:32:45.532Z,1.93
2022-11-03T04:35:20.566Z,2.47
2022-11-03T04:37:55.716Z,1.77
2022-11-03T04:40:24.508Z,1.60
2022-11-03T04:42:53.458Z,1.87
2022-11-03T04:45:31.294Z,1.90
2022-11-03T04:48:04.201Z,1.60
2022-11-03T04:50:32.681Z,2.30
2022-11-03T04:53:01.653Z,1.77
2022-11-03T04:55:30.114Z,1.87
2022-11-03T04:58:03.947Z,1.63
2022-11-03T05:00:33.903Z,1.80
2022-11-03T05:03:02.645Z,1.83
2022-11-03T05:05:32.022Z,1.77
2022-11-03T05:08:00.620Z,2.37
2022-11-03T05:10:30.861Z,1.93
2022-11-03T05:13:02.170Z,1.27
2022-11-03T05:15:37.028Z,2.17
2022-11-03T05:18:19.146Z,2.03
2022-11-03T05:20:52.709Z,1.40
2022-11-03T05:23:24.529Z,2.30
2022-11-03T05:25:57.447Z,1.47
2022-11-03T05:28:29.729Z,1.70
2022-11-03T05:30:59.919Z,1.50
2022-11-03T05:33:32.152Z,1.60
2022-11-03T05:36:07.217Z,1.80
2022-11-03T05:38:36.120Z,1.53
2022-11-03T05:41:07.548Z,1.90
2022-11-03T05:43:35.968Z,1.67
2022-11-03T05:48:40.072Z,1.37
2022-11-03T05:51:21.493Z,1.87
2022-11-03T05:53:54.810Z,1.57
2022-11-03T05:56:25.759Z,1.47
2022-11-03T05:58:57.316Z,1.90
2022-11-03T06:01:31.982Z,1.80
2022-11-03T06:04:05.084Z,1.70
2022-11-03T06:06:38.542Z,1.97
2022-11-03T06:09:16.852Z,1.60
2022-11-03T06:11:46.175Z,2.50
2022-11-03T06:14:23.995Z,1.67
2022-11-03T06:16:59.078Z,1.93
2022-11-03T06:19:31.288Z,1.50
2022-11-03T06:22:07.076Z,1.70
2022-11-03T06:24:36.128Z,1.97
2022-11-03T06:27:04.991Z,1.70
2022-11-03T06:29:34.794Z,1.80
2022-11-03T06:32:05.029Z,1.80
2022-11-03T06:34:42.192Z,1.50
2022-11-03T06:37:25.561Z,1.80
2022-11-03T06:40:02.842Z,1.60
2022-11-03T06:42:34.061Z,1.60
2022-11-03T06:45:15.110Z,1.73
2022-11-03T06:47:44.880Z,1.60
2022-11-03T06:50:25.695Z,1.43
2022-11-03T06:52:55.519Z,1.80
2022-11-03T06:55:27.733Z,1.80
2022-11-03T06:58:01.373Z,1.70
2022-11-03T07:00:51.320Z,2.40
2022-11-03T07:03:39.787Z,2.03
2022-11-03T07:06:33.079Z,1.80
2022-11-03T07:09:25.006Z,1.87
2022-11-03T07:12:19.372Z,1.40
2022-11-03T07:15:23.977Z,1.50
2022-11-03T07:18:23.103Z,1.90
2022-11-03T07:21:37.999Z,1.70
2022-11-03T07:24:31.975Z,1.87
2022-11-03T07:27:27.787Z,1.90
2022-11-03T07:30:22.170Z,2.00
2022-11-03T07:33:20.823Z,1.23
2022-11-03T07:36:16.365Z,1.63
2022-11-03T07:39:13.350Z,1.93
2022-11-03T07:42:04.267Z,1.40
2022-11-03T07:44:56.768Z,1.93
2022-11-03T07:47:45.460Z,1.67
2022-11-03T07:50:33.780Z,1.40
2022-11-03T07:53:31.783Z,1.97
2022-11-03T07:56:24.642Z,1.93
2022-11-03T07:59:19.815Z,1.60
2022-11-03T08:02:31.712Z,1.40
2022-11-03T08:08:13.687Z,2.13
2022-11-03T08:11:02.197Z,2.10
2022-11-03T08:13:52.802Z,2.40
2022-11-03T08:16:41.749Z,2.27
2022-11-03T08:19:30.816Z,1.50
2022-11-03T08:22:19.200Z,1.93
2022-11-03T08:25:09.642Z,1.87
2022-11-03T08:27:57.974Z,1.80
2022-11-03T08:30:47.657Z,2.10
2022-11-03T08:33:36.828Z,2.27
2022-11-03T08:36:25.196Z,1.63
2022-11-03T08:39:13.549Z,2.20
2022-11-03T08:42:01.899Z,1.90
2022-11-03T08:44:50.274Z,1.77
2022-11-03T08:47:40.055Z,1.87
2022-11-03T08:50:28.469Z,1.60
2022-11-03T08:53:17.092Z,2.30
2022-11-03T08:56:10.238Z,2.50
2022-11-03T08:59:00.951Z,3.00
2022-11-03T09:01:49.425Z,2.03
2022-11-03T09:04:39.234Z,2.10
2022-11-03T09:10:39.700Z,2.17
2022-11-03T09:13:30.556Z,3.27
2022-11-03T09:16:18.900Z,3.00
2022-11-03T09:19:07.335Z,3.13
2022-11-03T09:21:57.087Z,2.97
2022-11-03T09:24:45.429Z,3.50
2022-11-03T09:27:33.892Z,2.90
2022-11-03T09:30:22.246Z,2.97
2022-11-03T09:33:10.590Z,2.90
2022-11-03T09:35:59.014Z,3.07
2022-11-03T09:38:48.803Z,3.00
2022-11-03T09:41:56.029Z,3.17
2022-11-03T09:44:46.921Z,3.00
2022-11-03T09:47:38.897Z,3.30
2022-11-03T09:50:27.701Z,3.00
2022-11-03T09:53:16.186Z,3.40
2022-11-03T09:56:07.855Z,3.00
2022-11-03T09:58:56.237Z,3.20
2022-11-03T10:01:48.711Z,2.87
2022-11-03T10:04:37.182Z,3.17
2022-11-03T10:07:29.441Z,2.57
2022-11-03T10:10:21.605Z,2.67
2022-11-03T10:13:22.852Z,2.57
2022-11-03T10:16:16.541Z,2.40
2022-11-03T10:19:05.016Z,2.30
2022-11-03T10:21:53.921Z,2.43
2022-11-03T10:24:42.315Z,2.30
2022-11-03T10:27:30.630Z,1.93
2022-11-03T10:30:20.525Z,2.27
2022-11-03T10:33:27.968Z,2.73
2022-11-03T10:36:27.766Z,2.13
2022-11-03T10:39:33.857Z,2.20
2022-11-03T10:42:24.806Z,2.13
2022-11-03T10:45:18.403Z,2.13
2022-11-03T10:48:09.137Z,2.00
2022-11-03T10:50:57.488Z,2.40
2022-11-03T10:53:45.814Z,2.13
2022-11-03T10:56:34.754Z,2.13
2022-11-03T10:59:31.634Z,2.30
2022-11-03T11:02:23.965Z,2.07
2022-11-03T11:05:21.149Z,2.53
2022-11-03T11:08:11.456Z,2.07
2022-11-03T11:11:07.200Z,2.10
2022-11-03T11:14:36.822Z,2.00
2022-11-03T11:17:47.314Z,1.60
2022-11-03T11:20:42.385Z,2.20
2022-11-03T11:23:49.423Z,2.27
2022-11-03T11:26:39.758Z,2.27
2022-11-03T11:29:37.356Z,2.07
2022-11-03T11:33:00.565Z,1.90
2022-11-03T11:36:21.892Z,1.97
2022-11-03T11:39:13.132Z,1.90
2022-11-03T11:42:14.520Z,2.23
2022-11-03T11:45:04.613Z,1.53
2022-11-03T11:47:52.984Z,2.40
2022-11-03T11:50:41.577Z,2.40
2022-11-03T11:53:39.786Z,2.13
2022-11-03T11:56:28.155Z,1.60
2022-11-03T11:59:25.367Z,2.03
2022-11-03T12:02:24.409Z,1.47
2022-11-03T12:05:26.015Z,2.00
2022-11-03T12:08:30.716Z,1.47
2022-11-03T12:11:48.288Z,1.77
2022-11-03T12:14:39.684Z,1.60
2022-11-03T12:17:35.106Z,3.07
2022-11-03T12:20:37.007Z,1.97
2022-11-03T12:23:37.483Z,2.20
2022-11-03T12:26:44.901Z,1.83
2022-11-03T12:29:33.224Z,1.80
2022-11-03T12:32:32.924Z,1.80
2022-11-03T12:35:22.687Z,1.50
2022-11-03T12:38:11.243Z,2.00
2022-11-03T12:41:19.587Z,1.77
2022-11-03T12:44:09.517Z,1.67
2022-11-03T12:46:57.885Z,1.73
2022-11-03T12:49:46.310Z,2.30
2022-11-03T12:52:34.673Z,1.70
2022-11-03T12:55:23.137Z,1.63
2022-11-03T12:58:11.504Z,1.80
2022-11-03T13:01:02.155Z,2.07
2022-11-03T13:03:50.728Z,1.60
2022-11-03T13:06:39.096Z,1.97
2022-11-03T13:09:27.485Z,1.60
2022-11-03T13:12:35.186Z,2.10
2022-11-03T13:15:23.575Z,1.60
2022-11-03T13:18:14.430Z,2.43
2022-11-03T13:21:02.874Z,1.80
2022-11-03T13:23:52.952Z,1.87
2022-11-03T13:26:41.313Z,1.80
2022-11-03T13:29:34.936Z,2.13
2022-11-03T13:32:23.805Z,2.17
2022-11-03T13:35:14.214Z,2.00
2022-11-03T13:38:02.659Z,1.60
2022-11-03T13:40:57.102Z,2.07
2022-11-03T13:43:46.325Z,2.13
2022-11-03T13:46:34.743Z,1.50
2022-11-03T13:52:34.692Z,1.87
2022-11-03T14:01:41.558Z,1.73
2022-11-03T14:04:45.706Z,2.00
2022-11-03T14:07:35.567Z,2.07
2022-11-03T14:10:23.953Z,3.03
2022-11-03T14:13:12.157Z,1.77
2022-11-03T14:16:00.594Z,1.63
2022-11-03T14:18:48.982Z,1.60
2022-11-03T14:21:38.274Z,2.10
2022-11-03T14:24:28.065Z,1.60
2022-11-03T14:27:16.944Z,1.80
2022-11-03T14:30:06.882Z,2.10
2022-11-03T14:32:59.397Z,1.70
2022-11-03T14:35:48.125Z,1.93
2022-11-03T14:38:36.461Z,1.70
2022-11-03T14:41:44.121Z,2.17
2022-11-03T14:44:33.877Z,2.20
2022-11-03T14:47:22.480Z,1.70
2022-11-03T14:50:10.992Z,2.30
2022-11-03T14:53:00.088Z,2.10
2022-11-03T14:55:48.571Z,1.93
2022-11-03T14:58:38.466Z,1.80
2022-11-03T15:01:26.934Z,1.50
2022-11-03T15:04:15.607Z,1.70
2022-11-03T15:07:03.994Z,1.83
2022-11-03T15:09:52.407Z,2.07
2022-11-03T15:12:40.684Z,2.07
2022-11-03T15:15:30.437Z,2.13
2022-11-03T15:18:19.088Z,2.80
2022-11-03T15:21:08.020Z,2.00
2022-11-03T15:27:04.897Z,2.00
2022-11-03T15:29:53.258Z,1.70
2022-11-03T15:32:42.919Z,1.83
2022-11-03T15:35:31.800Z,2.60
2022-11-03T15:38:20.339Z,3.20
2022-11-03T15:41:17.436Z,1.97
2022-11-03T15:44:05.798Z,1.93
2022-11-03T15:46:55.114Z,2.27
2022-11-03T15:49:45.010Z,1.97
2022-11-03T15:52:33.421Z,2.10
2022-11-03T15:55:22.787Z,2.40
2022-11-03T15:58:11.200Z,2.40
2022-11-03T16:00:59.607Z,2.23
2022-11-03T16:03:48.157Z,4.43
2022-11-03T16:07:07.300Z,3.13
2022-11-03T16:09:47.765Z,3.20
2022-11-03T16:12:37.402Z,2.50
2022-11-03T16:15:25.965Z,2.50
2022-11-03T16:18:14.400Z,1.90
2022-11-03T16:21:02.715Z,1.80
2022-11-03T16:23:52.692Z,2.23
2022-11-03T16:26:41.262Z,1.90
2022-11-03T16:29:30.025Z,2.17
2022-11-03T16:32:18.365Z,2.60
2022-11-03T16:35:08.225Z,2.17
2022-11-03T16:37:57.149Z,2.37
2022-11-03T16:40:46.909Z,2.37
2022-11-03T16:43:35.396Z,3.17
2022-11-03T16:46:24.769Z,2.97
2022-11-03T16:49:13.084Z,3.13
2022-11-03T16:52:01.557Z,3.27
2022-11-03T16:54:50.022Z,3.43
2022-11-03T16:57:40.656Z,3.10
2022-11-03T17:00:28.983Z,2.90
2022-11-03T17:03:17.320Z,2.63
2022-11-03T17:06:06.083Z,3.00
2022-11-03T17:08:54.846Z,3.00
2022-11-03T17:11:43.203Z,2.90
2022-11-03T17:14:33.007Z,3.77
2022-11-03T17:17:21.373Z,3.83
2022-11-03T17:20:11.958Z,5.30
2022-11-03T17:23:00.335Z,4.30
2022-11-03T17:25:49.147Z,4.10
2022-11-03T17:28:38.123Z,3.70
2022-11-03T17:31:28.094Z,3.77
2022-11-03T17:34:25.743Z,3.40
2022-11-03T17:37:14.353Z,3.27
2022-11-03T17:40:02.701Z,3.27
2022-11-03T17:42:51.809Z,2.60
2022-11-03T17:45:40.116Z,2.70
2022-11-03T17:48:29.753Z,3.63
2022-11-03T17:51:18.100Z,3.40
2022-11-03T17:54:11.832Z,3.43
2022-11-03T17:57:02.487Z,3.80
2022-11-03T17:59:54.603Z,3.93
2022-11-03T18:02:43.491Z,4.07
2022-11-03T18:05:33.608Z,3.97
2022-11-03T18:08:22.229Z,4.30
2022-11-03T18:11:32.254Z,4.20
2022-11-03T18:14:20.048Z,3.50
2022-11-03T18:17:10.907Z,3.20
2022-11-03T18:19:59.342Z,3.57
2022-11-03T18:22:49.526Z,2.60
2022-11-03T18:25:37.871Z,2.80
2022-11-03T18:28:26.280Z,3.00
2022-11-03T18:31:21.722Z,3.10
2022-11-03T18:34:19.543Z,3.40
2022-11-03T18:37:10.118Z,3.33
2022-11-03T18:40:00.571Z,3.27
2022-11-03T18:42:48.956Z,2.90
2022-11-03T18:45:37.300Z,3.43
2022-11-03T18:48:25.634Z,2.90
2022-11-03T18:51:13.962Z,3.40
2022-11-03T18:54:02.531Z,2.90
2022-11-03T18:56:54.497Z,3.13
2022-11-03T18:59:45.777Z,4.13
2022-11-03T19:02:34.173Z,2.80
2022-11-03T19:05:23.375Z,3.27
2022-11-03T19:08:20.693Z,3.53
2022-11-03T19:11:10.985Z,3.53
2022-11-03T19:14:01.394Z,4.10
2022-11-03T19:17:17.092Z,3.70
2022-11-03T19:19:59.950Z,3.23
2022-11-03T19:22:49.096Z,3.57
2022-11-03T19:25:43.040Z,4.20
2022-11-03T19:28:34.244Z,3.23
2022-11-03T19:31:30.809Z,3.70
2022-11-03T19:34:25.694Z,3.43
2022-11-03T19:37:14.071Z,3.43
2022-11-03T19:40:02.727Z,3.63
2022-11-03T19:42:50.190Z,4.20
2022-11-03T19:45:40.362Z,4.33
2022-11-03T19:48:34.670Z,4.27
2022-11-03T19:51:23.319Z,3.03
2022-11-03T19:54:18.465Z,3.80
2022-11-03T19:57:11.318Z,3.00
2022-11-03T19:59:59.796Z,2.93
2022-11-03T20:02:48.339Z,3.47
2022-11-03T20:05:38.845Z,3.10
2022-11-03T20:08:30.023Z,3.03
2022-11-03T20:11:18.646Z,2.80
2022-11-03T20:14:07.030Z,2.50
2022-11-03T20:16:58.889Z,2.90
2022-11-03T20:19:47.304Z,2.43
2022-11-03T20:22:37.030Z,2.53
2022-11-03T20:25:28.753Z,3.30
2022-11-03T20:28:20.771Z,2.73
2022-11-03T20:31:09.245Z,2.90
2022-11-03T20:33:57.607Z,2.60
2022-11-03T20:36:47.947Z,2.87
2022-11-03T20:39:44.770Z,2.63
2022-11-03T20:42:34.051Z,2.83
2022-11-03T20:45:25.516Z,2.60
2022-11-03T20:48:13.851Z,3.00
2022-11-03T20:51:02.196Z,2.70
2022-11-03T20:53:50.726Z,2.93
2022-11-03T20:56:40.717Z,3.40
2022-11-03T20:59:32.111Z,2.73
2022-11-03T21:02:23.126Z,2.77
2022-11-03T21:05:17.561Z,2.70
2022-11-03T21:08:06.065Z,2.70
2022-11-03T21:10:54.536Z,2.70
2022-11-03T21:13:44.343Z,2.80
2022-11-03T21:16:51.060Z,2.87
2022-11-03T21:19:56.578Z,2.77
2022-11-03T21:22:53.653Z,2.73
2022-11-03T21:25:42.838Z,2.63
2022-11-03T21:28:31.173Z,3.30
2022-11-03T21:31:21.173Z,2.63
2022-11-03T21:34:09.527Z,3.43
2022-11-03T21:36:57.983Z,3.37
2022-11-03T21:39:47.922Z,3.27
2022-11-03T21:42:54.098Z,3.37
2022-11-03T21:45:42.502Z,3.63
2022-11-03T21:48:49.956Z,3.00
2022-11-03T21:51:38.274Z,2.83
2022-11-03T21:54:26.623Z,3.10
2022-11-03T21:57:16.323Z,3.43
2022-11-03T22:00:05.834Z,3.70
2022-11-03T22:02:54.199Z,3.70
2022-11-03T22:05:43.990Z,3.33
2022-11-03T22:08:32.370Z,3.50
2022-11-03T22:11:23.533Z,3.10
2022-11-03T22:14:13.711Z,3.77
2022-11-03T22:20:12.091Z,3.30
2022-11-03T22:23:20.939Z,3.77
2022-11-03T22:26:44.315Z,3.43
2022-11-03T22:29:50.350Z,3.30
2022-11-03T22:32:39.906Z,2.87
2022-11-03T22:35:45.623Z,3.10
2022-11-03T22:38:52.771Z,3.10
2022-11-03T22:42:03.436Z,2.97
2022-11-03T22:45:11.842Z,2.70
2022-11-03T22:48:00.209Z,2.93
2022-11-03T22:50:48.813Z,2.60
2022-11-03T22:53:57.317Z,3.00
2022-11-03T22:56:45.834Z,2.87
2022-11-03T22:59:34.237Z,2.90
2022-11-03T23:02:22.646Z,3.23
2022-11-03T23:05:11.139Z,3.37
2022-11-03T23:07:59.499Z,3.10
2022-11-03T23:10:49.183Z,2.90
2022-11-03T23:13:37.837Z,3.20
2022-11-03T23:16:29.209Z,3.50
2022-11-03T23:19:35.088Z,3.70
2022-11-03T23:22:23.405Z,3.07
2022-11-03T23:25:10.769Z,3.27
2022-11-03T23:28:00.488Z,3.70
2022-11-03T23:30:48.867Z,3.60
2022-11-03T23:33:37.489Z,3.53
2022-11-03T23:36:26.372Z,3.60
2022-11-03T23:39:19.195Z,3.70
2022-11-03T23:42:08.247Z,3.70
2022-11-03T23:45:11.871Z,3.67
2022-11-03T23:48:17.712Z,3.53
2022-11-03T23:51:06.169Z,3.77
2022-11-03T23:53:55.633Z,3.33
2022-11-03T23:57:04.145Z,4.00
2022-11-03T23:59:52.503Z,3.50
